Bridgeville, Delaware
Current Conditions -  °F | °C
As of 12:12 AM on Thursday 23 Oct 2014 (Local Time) from KGED Reporting Station
Overcast Overcast  
Wind Chill: 53°   Ceiling: 3300
Heat Index: 53°   Visibility: 10mi
Dew Point: 47°   Wind: 8mph
Humidity: 80%   Direction: 330°NNW
Pressure: 29.8"   Gusts: 18mph
Location:  38.74°N, 75.6°W
Report Text: KGED 230412Z AUTO 33007G16KT 10SM SCT022 OVC033 12/08 A2980 RMK AO2 T01170083
Loading
Personal Weather Stations






























Interactive Weather Map
Tropical Storm Tracking
New forecast layout! Learn more

10-Day Weather Forecast

Advertisements
Track Severe Weather on mobile